sensor_id;sensor_type;location;lat;lon;timestamp;P1;durP1;ratioP1;P2;durP2;ratioP2
21591;SDS011;10958;50.892;3.992;2023-04-24T00:00:30;21.27;;;12.77;;
21591;SDS011;10958;50.892;3.992;2023-04-24T00:02:56;19.88;;;12.02;;
21591;SDS011;10958;50.892;3.992;2023-04-24T00:05:23;22.58;;;12.25;;
21591;SDS011;10958;50.892;3.992;2023-04-24T00:09:05;25.00;;;13.02;;
21591;SDS011;10958;50.892;3.992;2023-04-24T00:11:31;21.70;;;12.85;;
21591;SDS011;10958;50.892;3.992;2023-04-24T00:13:57;20.60;;;12.50;;
21591;SDS011;10958;50.892;3.992;2023-04-24T00:16:22;23.23;;;12.10;;
21591;SDS011;10958;50.892;3.992;2023-04-24T00:18:48;23.13;;;13.05;;
21591;SDS011;10958;50.892;3.992;2023-04-24T00:21:15;21.75;;;12.27;;
21591;SDS011;10958;50.892;3.992;2023-04-24T00:24:00;22.95;;;11.93;;
21591;SDS011;10958;50.892;3.992;2023-04-24T00:26:26;21.52;;;11.60;;
21591;SDS011;10958;50.892;3.992;2023-04-24T00:28:52;20.58;;;11.38;;
21591;SDS011;10958;50.892;3.992;2023-04-24T00:31:18;21.73;;;11.07;;
21591;SDS011;10958;50.892;3.992;2023-04-24T00:33:46;23.00;;;11.80;;
21591;SDS011;10958;50.892;3.992;2023-04-24T00:36:12;21.50;;;11.75;;
21591;SDS011;10958;50.892;3.992;2023-04-24T00:38:37;22.73;;;12.20;;
21591;SDS011;10958;50.892;3.992;2023-04-24T00:41:03;18.30;;;11.77;;
21591;SDS011;10958;50.892;3.992;2023-04-24T00:43:29;19.10;;;11.38;;
21591;SDS011;10958;50.892;3.992;2023-04-24T00:45:55;19.40;;;11.05;;
21591;SDS011;10958;50.892;3.992;2023-04-24T00:48:23;19.20;;;11.57;;
21591;SDS011;10958;50.892;3.992;2023-04-24T00:50:49;19.30;;;10.48;;
21591;SDS011;10958;50.892;3.992;2023-04-24T00:53:15;15.40;;;10.20;;
21591;SDS011;10958;50.892;3.992;2023-04-24T00:55:41;16.75;;;9.20;;
21591;SDS011;10958;50.892;3.992;2023-04-24T00:58:07;20.02;;;10.40;;
21591;SDS011;10958;50.892;3.992;2023-04-24T01:00:32;16.33;;;10.68;;
21591;SDS011;10958;50.892;3.992;2023-04-24T01:02:59;20.25;;;10.43;;
21591;SDS011;10958;50.892;3.992;2023-04-24T01:05:29;11.57;;;8.32;;
21591;SDS011;10958;50.892;3.992;2023-04-24T01:07:58;15.13;;;9.52;;
21591;SDS011;10958;50.892;3.992;2023-04-24T01:10:24;15.32;;;9.10;;
21591;SDS011;10958;50.892;3.992;2023-04-24T01:12:52;15.27;;;9.40;;
21591;SDS011;10958;50.892;3.992;2023-04-24T01:15:20;12.05;;;8.02;;
21591;SDS011;10958;50.892;3.992;2023-04-24T01:17:46;11.13;;;8.15;;
21591;SDS011;10958;50.892;3.992;2023-04-24T01:20:11;11.05;;;6.65;;
21591;SDS011;10958;50.892;3.992;2023-04-24T01:22:38;8.43;;;6.03;;
21591;SDS011;10958;50.892;3.992;2023-04-24T01:25:04;7.60;;;5.32;;
21591;SDS011;10958;50.892;3.992;2023-04-24T01:27:33;7.78;;;4.70;;
21591;SDS011;10958;50.892;3.992;2023-04-24T01:29:59;6.85;;;4.60;;
21591;SDS011;10958;50.892;3.992;2023-04-24T01:32:25;6.18;;;4.60;;
21591;SDS011;10958;50.892;3.992;2023-04-24T01:34:51;5.63;;;4.20;;
21591;SDS011;10958;50.892;3.992;2023-04-24T01:37:20;6.88;;;4.75;;
21591;SDS011;10958;50.892;3.992;2023-04-24T01:39:45;8.30;;;5.75;;
21591;SDS011;10958;50.892;3.992;2023-04-24T01:42:11;8.98;;;5.68;;
21591;SDS011;10958;50.892;3.992;2023-04-24T01:44:38;9.38;;;6.60;;
21591;SDS011;10958;50.892;3.992;2023-04-24T01:47:04;11.68;;;6.93;;
21591;SDS011;10958;50.892;3.992;2023-04-24T01:49:31;9.98;;;7.18;;
21591;SDS011;10958;50.892;3.992;2023-04-24T01:51:57;9.75;;;7.20;;
21591;SDS011;10958;50.892;3.992;2023-04-24T01:54:23;12.45;;;7.57;;
21591;SDS011;10958;50.892;3.992;2023-04-24T01:56:48;10.25;;;7.38;;
21591;SDS011;10958;50.892;3.992;2023-04-24T01:59:14;9.35;;;7.40;;
21591;SDS011;10958;50.892;3.992;2023-04-24T02:01:42;12.43;;;7.63;;
21591;SDS011;10958;50.892;3.992;2023-04-24T02:04:07;11.77;;;8.10;;
21591;SDS011;10958;50.892;3.992;2023-04-24T02:06:33;10.45;;;7.28;;
21591;SDS011;10958;50.892;3.992;2023-04-24T02:09:02;15.60;;;7.87;;
21591;SDS011;10958;50.892;3.992;2023-04-24T02:11:28;13.48;;;7.68;;
21591;SDS011;10958;50.892;3.992;2023-04-24T02:13:54;13.00;;;8.07;;
21591;SDS011;10958;50.892;3.992;2023-04-24T02:16:20;12.95;;;8.27;;
21591;SDS011;10958;50.892;3.992;2023-04-24T02:18:46;15.23;;;9.25;;
21591;SDS011;10958;50.892;3.992;2023-04-24T02:21:11;13.40;;;8.55;;
21591;SDS011;10958;50.892;3.992;2023-04-24T02:23:37;16.95;;;9.02;;
21591;SDS011;10958;50.892;3.992;2023-04-24T02:26:03;13.23;;;7.75;;
21591;SDS011;10958;50.892;3.992;2023-04-24T02:28:28;15.05;;;8.20;;
21591;SDS011;10958;50.892;3.992;2023-04-24T02:30:54;16.13;;;9.43;;
21591;SDS011;10958;50.892;3.992;2023-04-24T02:33:20;17.38;;;8.98;;
21591;SDS011;10958;50.892;3.992;2023-04-24T02:35:46;14.82;;;8.68;;
21591;SDS011;10958;50.892;3.992;2023-04-24T02:38:12;12.45;;;8.50;;
21591;SDS011;10958;50.892;3.992;2023-04-24T02:40:38;17.45;;;8.23;;
21591;SDS011;10958;50.892;3.992;2023-04-24T02:43:04;11.27;;;8.10;;
21591;SDS011;10958;50.892;3.992;2023-04-24T02:45:29;13.30;;;7.60;;
21591;SDS011;10958;50.892;3.992;2023-04-24T02:47:55;13.05;;;8.25;;
21591;SDS011;10958;50.892;3.992;2023-04-24T02:50:21;11.00;;;6.80;;
21591;SDS011;10958;50.892;3.992;2023-04-24T02:52:50;11.15;;;7.28;;
21591;SDS011;10958;50.892;3.992;2023-04-24T02:55:16;11.38;;;7.30;;
21591;SDS011;10958;50.892;3.992;2023-04-24T02:57:41;12.18;;;7.25;;
21591;SDS011;10958;50.892;3.992;2023-04-24T03:00:09;9.23;;;7.18;;
21591;SDS011;10958;50.892;3.992;2023-04-24T03:02:36;12.75;;;7.20;;
21591;SDS011;10958;50.892;3.992;2023-04-24T03:05:04;10.85;;;6.63;;
21591;SDS011;10958;50.892;3.992;2023-04-24T03:07:30;6.55;;;5.15;;
21591;SDS011;10958;50.892;3.992;2023-04-24T03:09:57;11.23;;;6.82;;
21591;SDS011;10958;50.892;3.992;2023-04-24T03:12:23;8.85;;;6.07;;
21591;SDS011;10958;50.892;3.992;2023-04-24T03:14:49;7.53;;;5.97;;
21591;SDS011;10958;50.892;3.992;2023-04-24T03:17:14;8.63;;;6.55;;
21591;SDS011;10958;50.892;3.992;2023-04-24T03:19:40;7.78;;;6.10;;
21591;SDS011;10958;50.892;3.992;2023-04-24T03:22:06;8.68;;;6.35;;
21591;SDS011;10958;50.892;3.992;2023-04-24T03:24:35;7.90;;;5.80;;
21591;SDS011;10958;50.892;3.992;2023-04-24T03:27:00;6.97;;;5.78;;
21591;SDS011;10958;50.892;3.992;2023-04-24T03:29:26;9.20;;;6.97;;
21591;SDS011;10958;50.892;3.992;2023-04-24T03:31:52;7.53;;;5.68;;
21591;SDS011;10958;50.892;3.992;2023-04-24T03:34:18;8.48;;;5.50;;
21591;SDS011;10958;50.892;3.992;2023-04-24T03:36:46;9.63;;;5.32;;
21591;SDS011;10958;50.892;3.992;2023-04-24T03:39:14;11.43;;;5.40;;
21591;SDS011;10958;50.892;3.992;2023-04-24T03:41:40;7.28;;;5.22;;
21591;SDS011;10958;50.892;3.992;2023-04-24T03:44:06;8.70;;;4.82;;
21591;SDS011;10958;50.892;3.992;2023-04-24T03:46:31;6.95;;;4.70;;
21591;SDS011;10958;50.892;3.992;2023-04-24T03:48:57;7.85;;;4.88;;
21591;SDS011;10958;50.892;3.992;2023-04-24T03:51:23;7.85;;;5.25;;
21591;SDS011;10958;50.892;3.992;2023-04-24T03:53:49;7.60;;;4.60;;
21591;SDS011;10958;50.892;3.992;2023-04-24T03:56:17;6.72;;;4.75;;
21591;SDS011;10958;50.892;3.992;2023-04-24T03:58:43;9.32;;;5.20;;
21591;SDS011;10958;50.892;3.992;2023-04-24T04:01:08;8.20;;;4.78;;
21591;SDS011;10958;50.892;3.992;2023-04-24T04:03:35;8.50;;;5.35;;
21591;SDS011;10958;50.892;3.992;2023-04-24T04:06:01;6.60;;;4.82;;
21591;SDS011;10958;50.892;3.992;2023-04-24T04:08:26;8.30;;;5.82;;
21591;SDS011;10958;50.892;3.992;2023-04-24T04:10:52;8.15;;;5.95;;
21591;SDS011;10958;50.892;3.992;2023-04-24T04:13:17;10.25;;;6.38;;
21591;SDS011;10958;50.892;3.992;2023-04-24T04:15:44;13.27;;;6.60;;
21591;SDS011;10958;50.892;3.992;2023-04-24T04:18:09;10.88;;;6.18;;
21591;SDS011;10958;50.892;3.992;2023-04-24T04:20:35;13.40;;;7.72;;
21591;SDS011;10958;50.892;3.992;2023-04-24T04:23:03;16.48;;;8.55;;
21591;SDS011;10958;50.892;3.992;2023-04-24T04:25:28;15.63;;;9.48;;
21591;SDS011;10958;50.892;3.992;2023-04-24T04:27:54;14.98;;;9.38;;
21591;SDS011;10958;50.892;3.992;2023-04-24T04:30:20;16.73;;;9.48;;
21591;SDS011;10958;50.892;3.992;2023-04-24T04:32:46;14.10;;;8.68;;
21591;SDS011;10958;50.892;3.992;2023-04-24T04:35:12;16.58;;;10.00;;
21591;SDS011;10958;50.892;3.992;2023-04-24T04:37:38;20.63;;;9.75;;
21591;SDS011;10958;50.892;3.992;2023-04-24T04:40:06;16.80;;;9.27;;
21591;SDS011;10958;50.892;3.992;2023-04-24T04:42:36;17.85;;;9.00;;
21591;SDS011;10958;50.892;3.992;2023-04-24T04:45:05;18.58;;;10.70;;
21591;SDS011;10958;50.892;3.992;2023-04-24T04:47:34;19.45;;;10.13;;
21591;SDS011;10958;50.892;3.992;2023-04-24T04:50:00;17.98;;;9.68;;
21591;SDS011;10958;50.892;3.992;2023-04-24T04:52:26;22.58;;;10.77;;
21591;SDS011;10958;50.892;3.992;2023-04-24T04:54:52;17.70;;;10.85;;
21591;SDS011;10958;50.892;3.992;2023-04-24T04:57:18;16.15;;;10.00;;
21591;SDS011;10958;50.892;3.992;2023-04-24T04:59:43;23.48;;;11.48;;
21591;SDS011;10958;50.892;3.992;2023-04-24T05:02:09;19.88;;;10.75;;
21591;SDS011;10958;50.892;3.992;2023-04-24T05:04:36;18.63;;;11.15;;
21591;SDS011;10958;50.892;3.992;2023-04-24T05:07:01;16.48;;;9.70;;
21591;SDS011;10958;50.892;3.992;2023-04-24T05:09:28;20.02;;;11.57;;
21591;SDS011;10958;50.892;3.992;2023-04-24T05:11:54;15.60;;;11.05;;
21591;SDS011;10958;50.892;3.992;2023-04-24T05:14:21;18.60;;;9.75;;
21591;SDS011;10958;50.892;3.992;2023-04-24T05:16:47;18.88;;;10.25;;
21591;SDS011;10958;50.892;3.992;2023-04-24T05:19:13;16.27;;;10.75;;
21591;SDS011;10958;50.892;3.992;2023-04-24T05:21:40;14.70;;;10.25;;
21591;SDS011;10958;50.892;3.992;2023-04-24T05:24:06;15.57;;;9.70;;
21591;SDS011;10958;50.892;3.992;2023-04-24T05:26:32;16.58;;;9.20;;
21591;SDS011;10958;50.892;3.992;2023-04-24T05:28:58;14.18;;;9.80;;
21591;SDS011;10958;50.892;3.992;2023-04-24T05:31:24;14.60;;;9.30;;
21591;SDS011;10958;50.892;3.992;2023-04-24T05:33:50;18.98;;;9.52;;
21591;SDS011;10958;50.892;3.992;2023-04-24T05:36:16;16.30;;;9.95;;
21591;SDS011;10958;50.892;3.992;2023-04-24T05:38:41;17.38;;;9.30;;
21591;SDS011;10958;50.892;3.992;2023-04-24T05:41:07;14.18;;;9.32;;
21591;SDS011;10958;50.892;3.992;2023-04-24T05:43:34;20.45;;;10.25;;
21591;SDS011;10958;50.892;3.992;2023-04-24T05:45:59;17.17;;;9.55;;
21591;SDS011;10958;50.892;3.992;2023-04-24T05:48:27;16.88;;;9.43;;
21591;SDS011;10958;50.892;3.992;2023-04-24T05:50:54;16.27;;;9.30;;
21591;SDS011;10958;50.892;3.992;2023-04-24T05:53:19;15.85;;;10.15;;
21591;SDS011;10958;50.892;3.992;2023-04-24T05:55:48;16.35;;;9.85;;
21591;SDS011;10958;50.892;3.992;2023-04-24T05:58:14;17.98;;;9.65;;
21591;SDS011;10958;50.892;3.992;2023-04-24T06:00:42;17.90;;;10.95;;
21591;SDS011;10958;50.892;3.992;2023-04-24T06:03:08;21.92;;;10.50;;
21591;SDS011;10958;50.892;3.992;2023-04-24T06:05:34;18.38;;;10.57;;
21591;SDS011;10958;50.892;3.992;2023-04-24T06:08:00;22.98;;;11.57;;
21591;SDS011;10958;50.892;3.992;2023-04-24T06:10:25;20.65;;;12.27;;
21591;SDS011;10958;50.892;3.992;2023-04-24T06:12:51;18.70;;;11.63;;
21591;SDS011;10958;50.892;3.992;2023-04-24T06:15:17;23.35;;;13.63;;
21591;SDS011;10958;50.892;3.992;2023-04-24T06:17:43;25.23;;;12.27;;
21591;SDS011;10958;50.892;3.992;2023-04-24T06:20:08;21.95;;;12.65;;
21591;SDS011;10958;50.892;3.992;2023-04-24T06:22:35;26.85;;;12.63;;
21591;SDS011;10958;50.892;3.992;2023-04-24T06:25:01;20.20;;;12.10;;
21591;SDS011;10958;50.892;3.992;2023-04-24T06:27:27;23.95;;;12.68;;
21591;SDS011;10958;50.892;3.992;2023-04-24T06:29:53;28.05;;;13.35;;
21591;SDS011;10958;50.892;3.992;2023-04-24T06:32:23;18.60;;;11.27;;
21591;SDS011;10958;50.892;3.992;2023-04-24T06:34:53;27.73;;;13.35;;
21591;SDS011;10958;50.892;3.992;2023-04-24T06:37:19;21.65;;;13.13;;
21591;SDS011;10958;50.892;3.992;2023-04-24T06:39:45;24.73;;;13.13;;
21591;SDS011;10958;50.892;3.992;2023-04-24T06:42:11;29.75;;;14.30;;
21591;SDS011;10958;50.892;3.992;2023-04-24T06:44:37;22.27;;;13.35;;
21591;SDS011;10958;50.892;3.992;2023-04-24T06:47:12;24.77;;;12.90;;
21591;SDS011;10958;50.892;3.992;2023-04-24T06:49:38;27.95;;;13.65;;
21591;SDS011;10958;50.892;3.992;2023-04-24T06:52:07;27.63;;;13.68;;
21591;SDS011;10958;50.892;3.992;2023-04-24T06:54:33;31.00;;;14.52;;
21591;SDS011;10958;50.892;3.992;2023-04-24T06:56:59;24.25;;;13.05;;
21591;SDS011;10958;50.892;3.992;2023-04-24T06:59:28;24.15;;;13.13;;
21591;SDS011;10958;50.892;3.992;2023-04-24T07:01:56;21.25;;;11.75;;
21591;SDS011;10958;50.892;3.992;2023-04-24T07:04:24;20.85;;;11.50;;
21591;SDS011;10958;50.892;3.992;2023-04-24T07:06:55;27.05;;;13.00;;
21591;SDS011;10958;50.892;3.992;2023-04-24T07:09:23;23.50;;;11.32;;
21591;SDS011;10958;50.892;3.992;2023-04-24T07:11:50;23.33;;;12.50;;
21591;SDS011;10958;50.892;3.992;2023-04-24T07:14:16;28.83;;;12.13;;
21591;SDS011;10958;50.892;3.992;2023-04-24T07:16:42;24.65;;;12.30;;
21591;SDS011;10958;50.892;3.992;2023-04-24T07:19:09;19.23;;;11.30;;
21591;SDS011;10958;50.892;3.992;2023-04-24T07:21:37;26.40;;;10.05;;
21591;SDS011;10958;50.892;3.992;2023-04-24T07:24:03;24.15;;;10.25;;
21591;SDS011;10958;50.892;3.992;2023-04-24T07:26:29;15.98;;;7.88;;
21591;SDS011;10958;50.892;3.992;2023-04-24T07:28:55;11.05;;;6.53;;
21591;SDS011;10958;50.892;3.992;2023-04-24T07:31:21;12.95;;;6.60;;
21591;SDS011;10958;50.892;3.992;2023-04-24T07:33:52;16.58;;;7.65;;
21591;SDS011;10958;50.892;3.992;2023-04-24T07:36:22;15.30;;;7.35;;
21591;SDS011;10958;50.892;3.992;2023-04-24T07:38:49;17.67;;;6.47;;
21591;SDS011;10958;50.892;3.992;2023-04-24T07:41:15;22.90;;;8.90;;
21591;SDS011;10958;50.892;3.992;2023-04-24T07:43:41;12.82;;;7.10;;
21591;SDS011;10958;50.892;3.992;2023-04-24T07:46:10;14.82;;;7.43;;
21591;SDS011;10958;50.892;3.992;2023-04-24T07:48:36;15.43;;;7.90;;
21591;SDS011;10958;50.892;3.992;2023-04-24T07:51:02;15.18;;;7.45;;
21591;SDS011;10958;50.892;3.992;2023-04-24T07:53:31;19.30;;;7.55;;
21591;SDS011;10958;50.892;3.992;2023-04-24T07:55:56;18.00;;;7.00;;
21591;SDS011;10958;50.892;3.992;2023-04-24T07:58:22;10.80;;;6.63;;
21591;SDS011;10958;50.892;3.992;2023-04-24T08:00:48;17.70;;;6.72;;
21591;SDS011;10958;50.892;3.992;2023-04-24T08:03:14;18.75;;;7.00;;
21591;SDS011;10958;50.892;3.992;2023-04-24T08:05:43;18.70;;;7.00;;
21591;SDS011;10958;50.892;3.992;2023-04-24T08:08:09;12.98;;;6.60;;
21591;SDS011;10958;50.892;3.992;2023-04-24T08:10:35;16.75;;;6.97;;
21591;SDS011;10958;50.892;3.992;2023-04-24T08:13:00;14.15;;;6.07;;
21591;SDS011;10958;50.892;3.992;2023-04-24T08:15:27;13.93;;;5.90;;
21591;SDS011;10958;50.892;3.992;2023-04-24T08:17:53;13.15;;;6.30;;
21591;SDS011;10958;50.892;3.992;2023-04-24T08:20:19;16.25;;;6.13;;
21591;SDS011;10958;50.892;3.992;2023-04-24T08:22:47;11.55;;;4.97;;
21591;SDS011;10958;50.892;3.992;2023-04-24T08:25:13;9.80;;;4.03;;
21591;SDS011;10958;50.892;3.992;2023-04-24T08:27:39;7.90;;;4.22;;
21591;SDS011;10958;50.892;3.992;2023-04-24T08:30:05;14.52;;;4.78;;
21591;SDS011;10958;50.892;3.992;2023-04-24T08:32:31;14.88;;;4.78;;
21591;SDS011;10958;50.892;3.992;2023-04-24T08:34:58;8.15;;;3.90;;
21591;SDS011;10958;50.892;3.992;2023-04-24T08:37:25;10.00;;;3.78;;
21591;SDS011;10958;50.892;3.992;2023-04-24T08:39:52;9.30;;;3.42;;
21591;SDS011;10958;50.892;3.992;2023-04-24T08:42:18;12.23;;;3.58;;
21591;SDS011;10958;50.892;3.992;2023-04-24T08:44:46;10.30;;;4.07;;
21591;SDS011;10958;50.892;3.992;2023-04-24T08:47:13;13.73;;;3.78;;
21591;SDS011;10958;50.892;3.992;2023-04-24T08:49:41;8.52;;;3.65;;
21591;SDS011;10958;50.892;3.992;2023-04-24T08:52:07;9.02;;;3.60;;
21591;SDS011;10958;50.892;3.992;2023-04-24T08:54:34;8.30;;;4.20;;
21591;SDS011;10958;50.892;3.992;2023-04-24T08:57:00;8.35;;;3.70;;
21591;SDS011;10958;50.892;3.992;2023-04-24T08:59:28;10.07;;;4.07;;
21591;SDS011;10958;50.892;3.992;2023-04-24T09:01:56;11.55;;;4.25;;
21591;SDS011;10958;50.892;3.992;2023-04-24T09:04:24;11.35;;;3.80;;
21591;SDS011;10958;50.892;3.992;2023-04-24T09:06:51;9.23;;;3.70;;
21591;SDS011;10958;50.892;3.992;2023-04-24T09:09:20;6.90;;;3.85;;
21591;SDS011;10958;50.892;3.992;2023-04-24T09:11:50;7.88;;;3.80;;
21591;SDS011;10958;50.892;3.992;2023-04-24T09:14:18;8.75;;;3.22;;
21591;SDS011;10958;50.892;3.992;2023-04-24T09:16:45;10.52;;;3.50;;
21591;SDS011;10958;50.892;3.992;2023-04-24T09:19:11;9.40;;;3.33;;
21591;SDS011;10958;50.892;3.992;2023-04-24T09:21:37;9.90;;;3.85;;
21591;SDS011;10958;50.892;3.992;2023-04-24T09:24:05;8.30;;;3.45;;
21591;SDS011;10958;50.892;3.992;2023-04-24T09:26:34;6.25;;;3.38;;
21591;SDS011;10958;50.892;3.992;2023-04-24T09:29:02;12.90;;;4.60;;
21591;SDS011;10958;50.892;3.992;2023-04-24T09:31:31;9.80;;;3.75;;
21591;SDS011;10958;50.892;3.992;2023-04-24T09:34:00;9.05;;;4.10;;
21591;SDS011;10958;50.892;3.992;2023-04-24T09:36:31;6.32;;;3.67;;
21591;SDS011;10958;50.892;3.992;2023-04-24T09:38:59;8.10;;;3.58;;
21591;SDS011;10958;50.892;3.992;2023-04-24T09:41:26;10.13;;;3.50;;
21591;SDS011;10958;50.892;3.992;2023-04-24T09:43:54;8.60;;;3.95;;
21591;SDS011;10958;50.892;3.992;2023-04-24T09:46:28;7.25;;;3.95;;
21591;SDS011;10958;50.892;3.992;2023-04-24T09:48:55;8.38;;;4.35;;
21591;SDS011;10958;50.892;3.992;2023-04-24T09:51:33;8.30;;;3.97;;
21591;SDS011;10958;50.892;3.992;2023-04-24T09:54:00;11.13;;;4.30;;
21591;SDS011;10958;50.892;3.992;2023-04-24T09:56:26;10.00;;;4.90;;
21591;SDS011;10958;50.892;3.992;2023-04-24T09:58:52;11.52;;;4.15;;
21591;SDS011;10958;50.892;3.992;2023-04-24T10:01:29;10.80;;;4.30;;
21591;SDS011;10958;50.892;3.992;2023-04-24T10:03:58;10.63;;;4.13;;
21591;SDS011;10958;50.892;3.992;2023-04-24T10:06:34;13.18;;;4.43;;
21591;SDS011;10958;50.892;3.992;2023-04-24T10:09:00;5.93;;;3.88;;
21591;SDS011;10958;50.892;3.992;2023-04-24T10:11:28;9.10;;;4.05;;
21591;SDS011;10958;50.892;3.992;2023-04-24T10:13:55;8.48;;;3.80;;
21591;SDS011;10958;50.892;3.992;2023-04-24T10:16:22;8.55;;;4.00;;
21591;SDS011;10958;50.892;3.992;2023-04-24T10:18:48;13.27;;;4.35;;
21591;SDS011;10958;50.892;3.992;2023-04-24T10:21:15;6.88;;;3.75;;
21591;SDS011;10958;50.892;3.992;2023-04-24T10:23:42;8.00;;;4.30;;
21591;SDS011;10958;50.892;3.992;2023-04-24T10:26:12;9.80;;;4.90;;
21591;SDS011;10958;50.892;3.992;2023-04-24T10:28:44;10.20;;;4.60;;
21591;SDS011;10958;50.892;3.992;2023-04-24T10:31:10;9.20;;;4.10;;
21591;SDS011;10958;50.892;3.992;2023-04-24T10:33:38;8.63;;;4.82;;
21591;SDS011;10958;50.892;3.992;2023-04-24T10:36:08;9.20;;;4.47;;
21591;SDS011;10958;50.892;3.992;2023-04-24T10:38:35;10.77;;;4.63;;
21591;SDS011;10958;50.892;3.992;2023-04-24T10:41:10;10.17;;;4.50;;
21591;SDS011;10958;50.892;3.992;2023-04-24T10:43:47;7.15;;;4.00;;
21591;SDS011;10958;50.892;3.992;2023-04-24T10:46:21;9.40;;;4.20;;
21591;SDS011;10958;50.892;3.992;2023-04-24T10:48:53;8.40;;;3.90;;
21591;SDS011;10958;50.892;3.992;2023-04-24T10:51:21;11.43;;;5.00;;
21591;SDS011;10958;50.892;3.992;2023-04-24T10:53:49;8.55;;;4.88;;
21591;SDS011;10958;50.892;3.992;2023-04-24T10:56:15;9.77;;;4.30;;
21591;SDS011;10958;50.892;3.992;2023-04-24T10:58:50;9.65;;;5.07;;
21591;SDS011;10958;50.892;3.992;2023-04-24T11:01:28;7.82;;;4.47;;
21591;SDS011;10958;50.892;3.992;2023-04-24T11:03:59;8.02;;;5.10;;
21591;SDS011;10958;50.892;3.992;2023-04-24T11:06:36;6.47;;;4.28;;
21591;SDS011;10958;50.892;3.992;2023-04-24T11:09:09;10.38;;;4.53;;
21591;SDS011;10958;50.892;3.992;2023-04-24T11:11:46;8.32;;;5.10;;
21591;SDS011;10958;50.892;3.992;2023-04-24T11:27:16;8.13;;;3.90;;
21591;SDS011;10958;50.892;3.992;2023-04-24T11:29:48;6.40;;;3.80;;
21591;SDS011;10958;50.892;3.992;2023-04-24T11:32:27;9.50;;;4.40;;
21591;SDS011;10958;50.892;3.992;2023-04-24T11:35:22;9.45;;;4.45;;
21591;SDS011;10958;50.892;3.992;2023-04-24T11:37:50;8.73;;;4.57;;
21591;SDS011;10958;50.892;3.992;2023-04-24T11:40:20;7.30;;;4.75;;
21591;SDS011;10958;50.892;3.992;2023-04-24T11:42:50;11.18;;;4.63;;
21591;SDS011;10958;50.892;3.992;2023-04-24T11:45:18;9.13;;;3.85;;
21591;SDS011;10958;50.892;3.992;2023-04-24T11:47:48;8.30;;;4.38;;
21591;SDS011;10958;50.892;3.992;2023-04-24T11:50:15;6.85;;;4.00;;
21591;SDS011;10958;50.892;3.992;2023-04-24T11:52:43;7.78;;;4.65;;
21591;SDS011;10958;50.892;3.992;2023-04-24T11:57:45;7.05;;;4.53;;
21591;SDS011;10958;50.892;3.992;2023-04-24T12:00:29;6.55;;;4.22;;
21591;SDS011;10958;50.892;3.992;2023-04-24T12:08:26;7.03;;;3.80;;
21591;SDS011;10958;50.892;3.992;2023-04-24T12:10:56;5.68;;;3.70;;
21591;SDS011;10958;50.892;3.992;2023-04-24T12:13:44;11.02;;;4.45;;
21591;SDS011;10958;50.892;3.992;2023-04-24T12:16:11;6.78;;;4.00;;
21591;SDS011;10958;50.892;3.992;2023-04-24T12:18:50;5.22;;;3.75;;
21591;SDS011;10958;50.892;3.992;2023-04-24T12:22:09;5.80;;;4.30;;
21591;SDS011;10958;50.892;3.992;2023-04-24T12:25:10;11.18;;;3.80;;
21591;SDS011;10958;50.892;3.992;2023-04-24T12:27:39;7.45;;;3.97;;
21591;SDS011;10958;50.892;3.992;2023-04-24T12:30:15;7.18;;;4.18;;
21591;SDS011;10958;50.892;3.992;2023-04-24T12:32:46;6.18;;;3.10;;
21591;SDS011;10958;50.892;3.992;2023-04-24T12:38:08;9.50;;;3.78;;
21591;SDS011;10958;50.892;3.992;2023-04-24T12:40:42;6.65;;;3.40;;
21591;SDS011;10958;50.892;3.992;2023-04-24T12:43:20;5.70;;;3.80;;
21591;SDS011;10958;50.892;3.992;2023-04-24T12:46:12;6.65;;;3.42;;
21591;SDS011;10958;50.892;3.992;2023-04-24T12:49:13;5.15;;;2.80;;
21591;SDS011;10958;50.892;3.992;2023-04-24T12:51:58;5.22;;;2.40;;
21591;SDS011;10958;50.892;3.992;2023-04-24T12:54:42;7.72;;;3.00;;
21591;SDS011;10958;50.892;3.992;2023-04-24T12:57:16;7.70;;;2.78;;
21591;SDS011;10958;50.892;3.992;2023-04-24T13:00:24;6.63;;;3.03;;
21591;SDS011;10958;50.892;3.992;2023-04-24T13:03:47;5.18;;;2.70;;
21591;SDS011;10958;50.892;3.992;2023-04-24T13:06:15;8.70;;;2.83;;
21591;SDS011;10958;50.892;3.992;2023-04-24T13:08:44;7.72;;;2.83;;
21591;SDS011;10958;50.892;3.992;2023-04-24T13:11:29;7.22;;;2.72;;
21591;SDS011;10958;50.892;3.992;2023-04-24T13:14:31;6.63;;;2.85;;
21591;SDS011;10958;50.892;3.992;2023-04-24T13:17:51;9.18;;;3.00;;
21591;SDS011;10958;50.892;3.992;2023-04-24T13:20:36;9.02;;;2.55;;
21591;SDS011;10958;50.892;3.992;2023-04-24T13:23:02;5.20;;;2.42;;
21591;SDS011;10958;50.892;3.992;2023-04-24T13:25:35;5.63;;;2.70;;
21591;SDS011;10958;50.892;3.992;2023-04-24T13:28:03;3.97;;;2.00;;
21591;SDS011;10958;50.892;3.992;2023-04-24T13:30:29;4.97;;;1.98;;
21591;SDS011;10958;50.892;3.992;2023-04-24T13:32:55;6.32;;;3.35;;
21591;SDS011;10958;50.892;3.992;2023-04-24T13:35:21;5.38;;;2.50;;
21591;SDS011;10958;50.892;3.992;2023-04-24T13:37:47;4.43;;;1.95;;
21591;SDS011;10958;50.892;3.992;2023-04-24T13:40:15;6.45;;;1.83;;
21591;SDS011;10958;50.892;3.992;2023-04-24T13:42:41;5.45;;;1.38;;
21591;SDS011;10958;50.892;3.992;2023-04-24T13:45:06;2.83;;;1.70;;
21591;SDS011;10958;50.892;3.992;2023-04-24T13:47:32;1.70;;;1.20;;
21591;SDS011;10958;50.892;3.992;2023-04-24T13:49:58;2.58;;;1.45;;
21591;SDS011;10958;50.892;3.992;2023-04-24T13:52:31;4.07;;;1.58;;
21591;SDS011;10958;50.892;3.992;2023-04-24T13:54:57;4.40;;;1.33;;
21591;SDS011;10958;50.892;3.992;2023-04-24T13:57:22;3.30;;;1.35;;
21591;SDS011;10958;50.892;3.992;2023-04-24T13:59:48;3.00;;;1.17;;
21591;SDS011;10958;50.892;3.992;2023-04-24T14:02:14;5.68;;;2.00;;
21591;SDS011;10958;50.892;3.992;2023-04-24T14:04:40;3.70;;;1.60;;
21591;SDS011;10958;50.892;3.992;2023-04-24T14:07:06;6.22;;;1.27;;
21591;SDS011;10958;50.892;3.992;2023-04-24T14:09:33;4.07;;;1.20;;
21591;SDS011;10958;50.892;3.992;2023-04-24T14:11:58;3.65;;;1.55;;
21591;SDS011;10958;50.892;3.992;2023-04-24T14:14:26;3.78;;;1.83;;
21591;SDS011;10958;50.892;3.992;2023-04-24T14:16:51;5.05;;;1.50;;
21591;SDS011;10958;50.892;3.992;2023-04-24T14:19:37;4.18;;;1.80;;
21591;SDS011;10958;50.892;3.992;2023-04-24T14:22:03;7.03;;;1.25;;
21591;SDS011;10958;50.892;3.992;2023-04-24T14:24:29;3.42;;;1.42;;
21591;SDS011;10958;50.892;3.992;2023-04-24T14:26:54;4.65;;;1.60;;
21591;SDS011;10958;50.892;3.992;2023-04-24T14:29:21;4.78;;;1.17;;
21591;SDS011;10958;50.892;3.992;2023-04-24T14:31:50;2.33;;;1.45;;
21591;SDS011;10958;50.892;3.992;2023-04-24T14:34:16;3.50;;;1.15;;
21591;SDS011;10958;50.892;3.992;2023-04-24T14:36:42;4.40;;;1.08;;
21591;SDS011;10958;50.892;3.992;2023-04-24T14:39:07;4.45;;;1.30;;
21591;SDS011;10958;50.892;3.992;2023-04-24T14:41:33;2.05;;;1.30;;
21591;SDS011;10958;50.892;3.992;2023-04-24T14:44:02;2.70;;;1.20;;
21591;SDS011;10958;50.892;3.992;2023-04-24T14:46:29;3.10;;;1.30;;
21591;SDS011;10958;50.892;3.992;2023-04-24T14:48:55;2.88;;;1.30;;
21591;SDS011;10958;50.892;3.992;2023-04-24T14:51:22;2.85;;;1.15;;
21591;SDS011;10958;50.892;3.992;2023-04-24T14:53:47;4.80;;;1.48;;
21591;SDS011;10958;50.892;3.992;2023-04-24T14:56:13;4.93;;;1.35;;
21591;SDS011;10958;50.892;3.992;2023-04-24T14:58:40;3.47;;;1.10;;
21591;SDS011;10958;50.892;3.992;2023-04-24T15:01:05;2.58;;;1.30;;
21591;SDS011;10958;50.892;3.992;2023-04-24T15:03:31;4.13;;;1.48;;
21591;SDS011;10958;50.892;3.992;2023-04-24T15:05:57;2.70;;;1.15;;
21591;SDS011;10958;50.892;3.992;2023-04-24T15:08:22;3.78;;;1.30;;
21591;SDS011;10958;50.892;3.992;2023-04-24T15:10:48;4.60;;;1.25;;